Main page
METAR-TAF:

METAR-TAF

Airports :

Udon Thani International Airport

Udon Thani, Thailand

latitude: 17-23N, longitude: 102-48E, elevation: 177 m

Current weather observation

The report was made 1 hour and 48 minutes ago, at 15:00 UTC
Wind 4 kt from the East/Northeast
Temperature 28°C
Humidity 89%
Pressure 1009 hPa
Visibility 10 km or more
no clouds below 1500 m and no cumulonimbus

METAR: VTUD 251500Z 07004KT CAVOK 28/26 Q1009 NOSIG

Time: 23:48 (16:48 UTC)

Forecast

The report was made 5 hours and 48 minutes ago, at 11:00 UTC
Forecast valid from 25 at 12 UTC to 26 at 12 UTC
Wind 5 kt from the Southeast
Visibility: 9000 m
Scattered clouds at a height of 2500 ft
Temporary
from 26 at 06 UTC to 26 at 12 UTC
Wind 15 kt from variable directions
Visibility: 4000 m
Few clouds at a height of 1800 ft, Cumulonimbus.
Broken clouds at a height of 2500 ft
Broken clouds at a height of 8000 ft
thunderstorm, rain,

TAF: VTUD 251100Z 2512/2612 13005KT 9000 SCT025 TEMPO 2606/2612 VRB15KT 4000 TSRA FEW018CB BKN025 BKN080

Weather observations and forecasts of more than 4000 airports (METAR and TAF reports).

The available stations are represented by yellow and red dots on the map.

Hover mouse over dot to see the name of the station.

Then click to see weather observations and forecasts.

To change the map : click on the green buttons with a black cross to zoom in, on the green button with a dash to zoom out, or on the green arrows for adjacent maps.


METAR-TAF: